Time;durP1;ratioP1;P1;durP2;ratioP2;P2;SDS_P1;SDS_P2;PMS_P1;PMS_P2;Temp;Humidity;BMP_temperature;BMP_pressure;BME280_temperature;BME280_humidity;BME280_pressure;Samples;Min_cycle;Max_cycle;Signal;HPM_P1;HPM_P2
2022/10/10 00:01:29;;;;;;;;;13.67;12.00;;;;;18.30;59.83;99410.66;4941641;28;104325;-62
2022/10/10 00:03:56;;;;;;;;;9.67;8.67;;;;;18.29;59.72;99412.56;4939299;28;102667;-62
2022/10/10 00:06:23;;;;;;;;;10.00;9.33;;;;;18.27;59.35;99402.94;4941296;28;102546;-62
2022/10/10 00:08:53;;;;;;;;;9.00;9.00;;;;;18.27;59.25;99402.94;4941429;28;103054;-62
2022/10/10 00:11:21;;;;;;;;;9.33;9.00;;;;;18.26;59.57;99396.63;4943349;28;109036;-61
2022/10/10 00:13:48;;;;;;;;;10.67;9.00;;;;;18.26;59.29;99399.34;4932597;28;102333;-62
2022/10/10 00:16:15;;;;;;;;;8.00;8.00;;;;;18.25;59.68;99394.09;4936501;28;102298;-62
2022/10/10 00:18:42;;;;;;;;;11.67;9.00;;;;;18.27;59.04;99403.75;4936559;28;102191;-62
2022/10/10 00:21:09;;;;;;;;;10.00;10.00;;;;;18.27;59.64;99389.22;4935630;28;104048;-62
2022/10/10 00:23:36;;;;;;;;;10.00;9.00;;;;;18.27;59.67;99391.97;4940268;28;102274;-62
2022/10/10 00:26:04;;;;;;;;;6.00;6.00;;;;;18.26;59.80;99384.81;4933384;28;102408;-62
2022/10/10 00:28:37;;;;;;;;;8.33;8.33;;;;;18.25;59.67;99377.66;4933180;28;110327;-62
2022/10/10 00:31:08;;;;;;;;;12.33;10.67;;;;;18.25;59.17;99383.13;4922988;28;102747;-62
2022/10/10 00:33:36;;;;;;;;;10.67;10.00;;;;;18.24;59.65;99384.19;4928524;28;102803;-62
2022/10/10 00:36:04;;;;;;;;;11.67;8.67;;;;;18.23;59.54;99380.66;4932065;28;102627;-63
2022/10/10 00:38:31;;;;;;;;;10.67;9.33;;;;;18.22;59.23;99378.97;4926915;28;102635;-63
2022/10/10 00:40:59;;;;;;;;;10.33;10.00;;;;;18.22;59.86;99372.66;4926577;28;104285;-62
2022/10/10 00:43:26;;;;;;;;;10.00;10.00;;;;;18.22;59.30;99369.94;4917790;28;102202;-63
2022/10/10 00:45:53;;;;;;;;;11.00;10.00;;;;;18.20;59.13;99372.88;4937472;28;102629;-63
2022/10/10 00:48:28;;;;;;;;;10.00;9.00;;;;;18.20;59.85;99369.31;4933596;28;102269;-63
2022/10/10 00:51:11;;;;;;;;;9.00;8.00;;;;;18.19;59.78;99362.19;4934449;28;108897;-63
2022/10/10 00:53:43;;;;;;;;;11.33;10.33;;;;;18.18;59.30;99352.28;4924079;28;102638;-63
2022/10/10 00:56:11;;;;;;;;;8.00;8.00;;;;;18.17;59.16;99353.34;4937090;28;102430;-62
2022/10/10 00:58:40;;;;;;;;;9.00;8.00;;;;;18.18;59.38;99358.59;4910012;28;103203;-63
2022/10/10 01:01:07;;;;;;;;;9.00;9.00;;;;;18.17;59.94;99356.94;4934358;28;104161;-62
2022/10/10 01:03:34;;;;;;;;;9.67;8.67;;;;;18.18;59.90;99355.03;4905707;28;102684;-63
2022/10/10 01:06:01;;;;;;;;;7.67;7.33;;;;;18.17;59.61;99351.47;4926059;28;103662;-62
2022/10/10 01:08:28;;;;;;;;;4.00;3.00;;;;;18.16;59.86;99347.03;4914551;28;102497;-63
2022/10/10 01:11:17;;;;;;;;;10.00;9.00;;;;;18.17;59.79;99340.50;4925083;28;104042;-63
2022/10/10 01:14:02;;;;;;;;;11.00;10.00;;;;;18.16;58.91;99340.72;4942424;28;102724;-62
2022/10/10 01:16:52;;;;;;;;;9.00;8.67;;;;;18.16;59.20;99343.47;4935645;28;102274;-63
2022/10/10 01:19:47;;;;;;;;;7.67;7.67;;;;;18.15;59.13;99337.16;4941848;28;102631;-62
2022/10/10 01:22:37;;;;;;;;;8.33;7.33;;;;;18.15;59.11;99330.84;4926767;28;108320;-62
2022/10/10 01:25:40;;;;;;;;;9.00;8.00;;;;;18.13;59.06;99333.00;4936831;28;103622;-62
2022/10/10 01:28:32;;;;;;;;;8.00;7.67;;;;;18.12;59.06;99328.56;4914533;28;102269;-62
2022/10/10 01:30:59;;;;;;;;;10.00;8.67;;;;;18.13;59.45;99327.53;4935875;28;102593;-63
2022/10/10 01:33:38;;;;;;;;;9.00;8.00;;;;;18.10;58.86;99328.81;4944788;28;104374;-63
2022/10/10 01:36:35;;;;;;;;;9.33;7.67;;;;;18.08;58.81;99320.00;4940658;28;106829;-63
2022/10/10 01:39:20;;;;;;;;;10.00;9.00;;;;;18.08;59.48;99313.69;4869787;28;102996;-62
2022/10/10 01:41:52;;;;;;;;;12.33;10.67;;;;;18.08;59.03;99316.44;4910801;28;103755;-63
2022/10/10 01:44:20;;;;;;;;;10.00;9.33;;;;;18.07;59.30;99312.00;4928776;28;105844;-62
2022/10/10 01:46:47;;;;;;;;;6.00;6.00;;;;;18.07;59.75;99307.38;4912949;28;102257;-63
2022/10/10 01:49:14;;;;;;;;;8.67;7.33;;;;;18.06;59.63;99311.19;4923227;28;102275;-63
2022/10/10 01:51:56;;;;;;;;;7.67;7.33;;;;;18.07;58.90;99309.28;4906898;28;103912;-63
2022/10/10 01:54:29;;;;;;;;;10.67;7.67;;;;;18.06;59.61;99311.19;4925617;28;108896;-63
2022/10/10 01:57:02;;;;;;;;;8.33;8.00;;;;;18.07;59.01;99301.06;4923453;28;102478;-63
2022/10/10 01:59:41;;;;;;;;;13.00;9.00;;;;;18.05;59.29;99306.78;4904212;28;102411;-62
2022/10/10 02:02:14;;;;;;;;;7.00;7.00;;;;;18.06;59.97;99304.84;4914999;28;102683;-62
2022/10/10 02:05:04;;;;;;;;;10.33;10.00;;;;;18.06;59.48;99299.38;4906962;28;104064;-63
2022/10/10 02:07:45;;;;;;;;;9.00;8.00;;;;;18.04;59.37;99307.84;4913015;28;104203;-63
2022/10/10 02:10:13;;;;;;;;;9.00;9.00;;;;;18.03;59.28;99299.88;4912457;28;102206;-62
2022/10/10 02:12:40;;;;;;;;;9.67;8.00;;;;;18.02;59.29;99309.13;4888579;28;103936;-64
2022/10/10 02:15:09;;;;;;;;;9.67;9.00;;;;;18.02;59.32;99303.66;4900510;28;104137;-63
2022/10/10 02:17:37;;;;;;;;;9.00;8.33;;;;;18.01;59.55;99308.28;4900709;28;102663;-62
2022/10/10 02:20:05;;;;;;;;;8.00;7.00;;;;;18.01;59.15;99296.53;4900430;28;102187;-63
2022/10/10 02:22:32;;;;;;;;;7.00;7.00;;;;;18.00;59.02;99305.81;4901345;28;103686;-63
2022/10/10 02:24:59;;;;;;;;;8.00;8.00;;;;;18.00;58.75;99305.81;4921532;28;103178;-63
2022/10/10 02:27:39;;;;;;;;;8.67;8.00;;;;;17.98;58.90;99302.47;4902336;28;102322;-63
2022/10/10 02:30:07;;;;;;;;;7.00;7.00;;;;;17.97;58.84;99298.03;4922632;28;102364;-63
2022/10/10 02:32:54;;;;;;;;;8.00;8.00;;;;;17.98;58.75;99296.97;4900890;28;102683;-63
2022/10/10 02:35:23;;;;;;;;;8.00;8.00;;;;;17.98;59.34;99292.34;4901991;28;109167;-63
2022/10/10 02:37:50;;;;;;;;;7.33;7.33;;;;;17.99;59.34;99298.66;4892370;28;103342;-63
2022/10/10 02:40:22;;;;;;;;;9.00;8.33;;;;;17.99;59.45;99298.66;4884244;28;102258;-62
2022/10/10 02:42:49;;;;;;;;;8.00;8.00;;;;;17.98;58.96;99292.34;4888326;28;102621;-62
2022/10/10 02:45:17;;;;;;;;;8.33;8.33;;;;;17.97;59.01;99284.34;4887926;28;104199;-63
2022/10/10 02:47:44;;;;;;;;;7.33;6.67;;;;;17.96;59.44;99283.56;4919078;28;102886;-62
2022/10/10 02:50:11;;;;;;;;;9.67;9.00;;;;;17.95;59.03;99287.34;4921564;28;104219;-62
2022/10/10 02:52:38;;;;;;;;;7.33;7.33;;;;;17.95;58.79;99276.41;4938641;28;102659;-63
2022/10/10 02:55:05;;;;;;;;;8.67;7.67;;;;;17.95;59.33;99281.03;4936518;28;104145;-62
2022/10/10 02:57:32;;;;;;;;;4.00;4.00;;;;;17.94;58.58;99280.19;4941527;28;102387;-63
2022/10/10 03:00:00;;;;;;;;;10.00;9.00;;;;;17.94;59.01;99279.38;4938485;28;103637;-63
2022/10/10 03:02:28;;;;;;;;;7.33;6.33;;;;;17.93;58.66;99272.22;4866292;28;103974;-68
2022/10/10 03:04:59;;;;;;;;;9.67;7.67;;;;;17.93;59.34;99272.22;4834162;28;102695;-63
2022/10/10 03:07:27;;;;;;;;;8.33;7.00;;;;;17.92;59.28;99271.38;4807080;28;103132;-69
2022/10/10 03:09:54;;;;;;;;;9.00;9.00;;;;;17.91;59.58;99275.19;4942183;28;102399;-70
2022/10/10 03:12:21;;;;;;;;;9.00;9.00;;;;;17.91;59.47;99263.41;4934704;28;102395;-69
2022/10/10 03:14:48;;;;;;;;;11.67;9.00;;;;;17.89;59.34;99260.06;4941510;28;104040;-69
2022/10/10 03:17:15;;;;;;;;;7.67;7.00;;;;;17.90;59.34;99264.47;4940431;28;102481;-69
2022/10/10 03:19:42;;;;;;;;;10.00;7.67;;;;;17.89;59.08;99257.31;4934499;28;102333;-69
2022/10/10 03:22:09;;;;;;;;;8.00;8.00;;;;;17.90;59.59;99256.28;4933057;28;103832;-69
2022/10/10 03:24:36;;;;;;;;;7.00;6.33;;;;;17.89;58.59;99255.44;4940689;28;104084;-70
2022/10/10 03:27:03;;;;;;;;;6.00;6.00;;;;;17.90;58.78;99261.75;4943319;28;102430;-69
2022/10/10 03:29:30;;;;;;;;;8.00;8.00;;;;;17.89;59.24;99254.59;4933883;28;103677;-69
2022/10/10 03:31:57;;;;;;;;;8.00;8.00;;;;;17.89;59.10;99254.59;4929944;28;103153;-69
2022/10/10 03:34:24;;;;;;;;;8.67;8.33;;;;;17.88;59.17;99253.75;4917547;28;104944;-69
2022/10/10 03:36:51;;;;;;;;;9.67;8.33;;;;;17.88;59.00;99252.94;4933718;28;103332;-69
2022/10/10 03:39:18;;;;;;;;;10.33;8.00;;;;;17.87;59.14;99256.75;4938448;28;103691;-69
2022/10/10 03:41:45;;;;;;;;;9.00;9.00;;;;;17.87;58.50;99252.13;4940990;28;102371;-69
2022/10/10 03:44:12;;;;;;;;;7.00;7.00;;;;;17.87;58.77;99243.06;4935984;28;103890;-69
2022/10/10 03:46:39;;;;;;;;;9.00;7.00;;;;;17.87;58.82;99245.81;4915552;28;102450;-62
2022/10/10 03:49:06;;;;;;;;;9.67;8.67;;;;;17.86;58.97;99244.13;4935832;28;102467;-63
2022/10/10 03:51:33;;;;;;;;;8.33;8.33;;;;;17.84;58.55;99242.44;4934142;28;102630;-62
2022/10/10 03:54:00;;;;;;;;;8.00;7.00;;;;;17.86;58.78;99249.59;4927893;28;104335;-63
2022/10/10 03:56:27;;;;;;;;;7.33;7.00;;;;;17.84;58.51;99250.66;4919562;28;102199;-62
2022/10/10 03:58:54;;;;;;;;;7.00;7.00;;;;;17.82;58.60;99244.59;4935025;28;102281;-62
2022/10/10 04:01:21;;;;;;;;;9.00;7.00;;;;;17.81;59.13;99242.94;4927523;28;103734;-63
2022/10/10 04:03:48;;;;;;;;;9.00;8.00;;;;;17.82;59.37;99249.22;4935100;28;104209;-62
2022/10/10 04:06:18;;;;;;;;;7.00;6.33;;;;;17.81;58.87;99248.41;4937914;28;102712;-63
2022/10/10 04:08:45;;;;;;;;;7.67;7.33;;;;;17.81;58.78;99242.09;4932674;28;103579;-62
2022/10/10 04:11:12;;;;;;;;;7.00;7.00;;;;;17.80;59.07;99235.78;4935581;28;102580;-62
2022/10/10 04:13:39;;;;;;;;;8.67;7.67;;;;;17.81;58.63;99236.63;4926958;28;104072;-62
2022/10/10 04:16:06;;;;;;;;;7.33;6.33;;;;;17.80;58.84;99234.94;4934524;28;102510;-63
2022/10/10 04:18:33;;;;;;;;;8.33;7.00;;;;;17.80;58.55;99234.94;4937205;28;103869;-62
2022/10/10 04:21:04;;;;;;;;;6.67;6.67;;;;;17.79;58.17;99236.00;4922336;28;102485;-63
2022/10/10 04:23:31;;;;;;;;;7.33;7.00;;;;;17.79;58.38;99234.09;4908933;28;104238;-62
2022/10/10 04:25:58;;;;;;;;;8.33;7.33;;;;;17.77;58.51;99230.78;4925457;28;102419;-63
2022/10/10 04:28:25;;;;;;;;;8.00;7.67;;;;;17.77;58.94;99229.94;4926145;28;102551;-62
2022/10/10 04:30:55;;;;;;;;;7.67;7.00;;;;;17.75;58.36;99230.16;4926855;28;102284;-62
2022/10/10 04:33:22;;;;;;;;;6.67;5.67;;;;;17.75;58.16;99227.44;4925476;28;104747;-62
2022/10/10 04:35:49;;;;;;;;;7.67;7.00;;;;;17.74;58.54;99225.75;4935008;28;102415;-63
2022/10/10 04:38:16;;;;;;;;;7.00;7.00;;;;;17.74;59.67;99223.00;4925279;28;102717;-63
2022/10/10 04:41:30;;;;;;;;;7.00;7.00;;;;;17.74;58.90;99224.94;4810948;28;102538;-61
2022/10/10 04:45:37;;;;;;;;;5.33;5.33;;;;;17.75;58.98;99223.84;4647025;28;108236;-61
2022/10/10 04:49:19;;;;;;;;;7.33;6.33;;;;;17.75;58.61;99224.69;4645488;29;101376;-62
2022/10/10 04:52:40;;;;;;;;;8.00;7.33;;;;;17.75;59.04;99226.59;4619959;28;102839;-61
2022/10/10 04:56:09;;;;;;;;;4.67;4.00;;;;;17.74;59.02;99230.41;4670378;28;103238;-60
2022/10/10 05:00:05;;;;;;;;;6.67;6.33;;;;;17.75;58.16;99226.59;4578438;28;107615;-68
2022/10/10 05:04:13;;;;;;;;;7.00;6.33;;;;;17.74;58.47;99224.94;4547690;28;103237;-60
2022/10/10 05:07:27;;;;;;;;;6.67;5.33;;;;;17.74;58.47;99227.69;4536727;28;103700;-62
2022/10/10 05:11:14;;;;;;;;;8.00;7.00;;;;;17.72;58.67;99222.44;4648091;28;102910;-61
2022/10/10 05:14:50;;;;;;;;;9.67;8.00;;;;;17.72;58.87;99227.91;4604915;28;108439;-60
2022/10/10 05:18:15;;;;;;;;;6.00;6.00;;;;;17.72;59.04;99225.16;4624307;28;106710;-62
2022/10/10 05:21:59;;;;;;;;;7.00;6.00;;;;;17.70;58.56;99221.81;4624096;28;103186;-60
2022/10/10 05:25:50;;;;;;;;;7.33;6.67;;;;;17.70;58.51;99227.28;4725686;28;102286;-60
2022/10/10 05:29:24;;;;;;;;;7.33;7.00;;;;;17.70;59.02;99219.06;4708821;28;110416;-60
2022/10/10 05:33:08;;;;;;;;;6.00;6.00;;;;;17.68;59.27;99220.38;4609242;28;102644;-60
2022/10/10 05:36:49;;;;;;;;;5.67;5.00;;;;;17.67;58.41;99222.28;4689407;28;102361;-61
2022/10/10 05:41:09;;;;;;;;;7.33;5.67;;;;;17.67;58.69;99219.56;4716168;28;103252;-63
2022/10/10 05:44:57;;;;;;;;;6.00;6.00;;;;;17.68;58.78;99220.38;4693610;28;102119;-61
2022/10/10 05:48:04;;;;;;;;;8.00;8.00;;;;;17.67;58.92;99225.03;4822916;28;102157;-62
2022/10/10 05:59:33;;;;;;;;;7.33;6.33;;;;;17.66;59.36;99227.97;4700607;28;106032;-60
2022/10/10 06:03:36;;;;;;;;;7.00;5.67;;;;;17.65;58.37;99224.41;4679209;29;102491;-61
2022/10/10 06:07:22;;;;;;;;;7.33;5.00;;;;;17.64;59.06;99214.56;4809861;28;102840;-68
2022/10/10 06:11:23;;;;;;;;;6.33;6.33;;;;;17.61;58.82;99223.19;4796575;28;102267;-60
2022/10/10 06:15:12;;;;;;;;;6.00;5.33;;;;;17.65;58.55;99226.34;4774104;28;107750;-61
2022/10/10 06:18:51;;;;;;;;;8.00;7.00;;;;;17.63;59.05;99226.56;4723725;28;102901;-61
2022/10/10 06:22:23;;;;;;;;;6.67;6.67;;;;;17.63;58.71;99225.72;4650243;28;102450;-61
2022/10/10 06:26:27;;;;;;;;;7.00;6.00;;;;;17.62;59.24;99226.78;4621188;28;103230;-61
2022/10/10 06:30:17;;;;;;;;;6.33;5.00;;;;;17.62;58.47;99227.63;4640976;28;103230;-63
2022/10/10 06:34:16;;;;;;;;;5.00;5.00;;;;;17.62;58.45;99227.63;4658396;28;108300;-62
2022/10/10 06:38:22;;;;;;;;;5.33;5.33;;;;;17.63;58.97;99228.44;4720899;28;102922;-61
2022/10/10 06:42:22;;;;;;;;;6.00;5.67;;;;;17.63;58.88;99233.91;4665488;28;102873;-62
2022/10/10 06:46:12;;;;;;;;;4.33;4.33;;;;;17.62;58.70;99227.63;4636325;29;108727;-60
2022/10/10 06:58:06;;;;;;;;;6.00;5.00;;;;;17.63;59.39;99220.25;4759761;28;102114;-61
2022/10/10 07:02:27;;;;;;;;;6.67;6.00;;;;;17.62;59.17;99224.88;4612801;28;106251;-61
2022/10/10 07:10:26;;;;;;;;;5.00;5.00;;;;;17.62;59.25;99227.63;4688693;28;103297;-64
2022/10/10 07:14:14;;;;;;;;;7.00;6.00;;;;;17.62;58.69;99227.63;4628829;29;102339;-64
2022/10/10 07:17:41;;;;;;;;;6.00;6.00;;;;;17.63;58.89;99229.28;4632668;29;105866;-64
2022/10/10 07:24:34;;;;;;;;;5.00;5.00;;;;;17.63;58.60;99223.81;4661374;29;102109;-64
2022/10/10 07:28:37;;;;;;;;;5.67;5.00;;;;;17.65;59.08;99221.66;4586336;29;103728;-66
2022/10/10 07:32:31;;;;;;;;;4.33;4.33;;;;;17.66;58.36;99226.06;4744875;29;102821;-61
2022/10/10 07:36:08;;;;;;;;;6.33;5.67;;;;;17.65;58.30;99227.13;4714888;29;102504;-61
2022/10/10 07:40:11;;;;;;;;;5.00;4.00;;;;;17.67;58.42;99221.44;4654608;28;103114;-69
2022/10/10 07:48:37;;;;;;;;;6.00;5.00;;;;;17.67;59.18;99225.03;4689755;28;105954;-61
2022/10/10 07:52:12;;;;;;;;;6.00;5.00;;;;;17.67;58.97;99222.28;4690513;28;102346;-61
2022/10/10 07:55:56;;;;;;;;;6.00;6.00;;;;;17.66;58.82;99217.88;4673499;28;102050;-61
2022/10/10 07:59:59;;;;;;;;;6.00;6.00;;;;;17.65;58.88;99221.66;4791156;28;102185;-61
2022/10/10 08:04:12;;;;;;;;;4.67;4.67;;;;;17.65;58.49;99216.19;4690595;29;106194;-61
2022/10/10 08:07:46;;;;;;;;;4.00;4.00;;;;;17.66;58.22;99215.13;4799294;28;102078;-64
2022/10/10 08:11:20;;;;;;;;;4.33;4.33;;;;;17.68;58.51;99210.28;4784510;28;102348;-61
2022/10/10 08:15:42;;;;;;;;;4.67;4.67;;;;;17.70;58.69;99201.81;4712407;28;103244;-64
2022/10/10 08:19:24;;;;;;;;;4.67;4.00;;;;;17.71;58.27;99217.19;4524567;29;102924;-61
2022/10/10 08:23:24;;;;;;;;;4.00;4.00;;;;;17.72;58.16;99206.03;4586347;29;102138;-61
2022/10/10 08:27:23;;;;;;;;;4.00;4.00;;;;;17.73;58.75;99204.13;4647108;29;108033;-61
2022/10/10 08:31:21;;;;;;;;;5.00;5.00;;;;;17.74;58.51;99195.66;4684073;29;102221;-62
2022/10/10 08:38:38;;;;;;;;;5.00;4.33;;;;;17.78;58.29;99188.69;4677854;29;102610;-60
2022/10/10 08:41:49;;;;;;;;;5.00;4.00;;;;;17.79;58.51;99184.03;4508391;28;103494;-62
2022/10/10 08:44:54;;;;;;;;;6.33;6.33;;;;;17.78;58.64;99187.84;4648719;29;103234;-60
2022/10/10 08:53:01;;;;;;;;;6.67;6.00;;;;;17.78;57.91;99176.91;4720767;28;103802;-67
2022/10/10 08:57:13;;;;;;;;;6.00;6.00;;;;;17.77;57.60;99170.59;4705312;28;102193;-63
2022/10/10 09:01:12;;;;;;;;;4.33;4.00;;;;;17.78;58.38;99174.16;4531752;29;103383;-64
2022/10/10 09:05:27;;;;;;;;;4.00;4.00;;;;;17.82;58.19;99168.00;4553544;29;102509;-65
2022/10/10 09:09:00;;;;;;;;;5.00;5.00;;;;;17.84;58.33;99165.84;4653915;29;103325;-65
2022/10/10 09:12:54;;;;;;;;;5.67;4.33;;;;;17.86;58.20;99159.31;4695396;29;102281;-61
2022/10/10 09:20:15;;;;;;;;;4.33;4.33;;;;;17.86;58.20;99149.22;4632484;29;106847;-61
2022/10/10 09:24:17;;;;;;;;;6.00;6.00;;;;;17.87;58.21;99150.03;4567825;29;102320;-62
2022/10/10 09:28:16;;;;;;;;;5.67;5.00;;;;;17.88;57.77;99148.97;4697650;29;102271;-64
2022/10/10 09:36:01;;;;;;;;;4.00;4.00;;;;;17.87;58.28;99142.69;4552736;29;107103;-65
2022/10/10 09:39:46;;;;;;;;;4.00;4.00;;;;;17.89;58.39;99139.69;4596973;29;102472;-65
2022/10/10 09:43:37;;;;;;;;;3.00;3.00;;;;;17.90;57.93;99135.88;4623706;29;102292;-61
2022/10/10 09:55:48;;;;;;;;;3.00;3.00;;;;;17.92;58.38;99133.75;4798266;28;102801;-66
2022/10/10 10:07:33;;;;;;;;;4.00;4.00;;;;;17.93;57.76;99124.47;4676986;28;102491;-68
2022/10/10 10:11:15;;;;;;;;;5.00;4.00;;;;;17.93;57.83;99116.25;4656249;29;103317;-64
2022/10/10 10:15:25;;;;;;;;;4.00;4.00;;;;;17.93;57.99;99114.34;4634464;29;102058;-61
2022/10/10 10:19:31;;;;;;;;;5.00;4.00;;;;;17.94;58.44;99109.72;4691492;29;102124;-62
2022/10/10 10:23:32;;;;;;;;;5.00;4.33;;;;;17.94;57.55;99102.34;4648776;29;102989;-61
2022/10/10 10:27:21;;;;;;;;;2.67;2.67;;;;;17.96;57.84;99102.13;4748684;29;102302;-63
2022/10/10 10:31:14;;;;;;;;;2.67;2.67;;;;;17.97;57.56;99098.28;4699947;29;102157;-65
2022/10/10 10:35:16;;;;;;;;;4.00;4.00;;;;;17.99;58.11;99090.69;4657270;29;102907;-67
2022/10/10 10:39:26;;;;;;;;;4.00;3.00;;;;;18.01;58.10;99089.38;4614623;29;107116;-61
2022/10/10 10:47:01;;;;;;;;;4.00;4.00;;;;;18.06;58.02;99074.97;4695659;29;102143;-61
2022/10/10 10:51:19;;;;;;;;;3.33;3.33;;;;;18.07;57.69;99071.19;4759172;28;104293;-61
2022/10/10 10:59:15;;;;;;;;;4.33;3.67;;;;;18.11;57.51;99051.31;4580737;28;102597;-61
2022/10/10 11:02:54;;;;;;;;;5.00;4.00;;;;;18.10;57.62;99055.09;4707451;29;103246;-63
2022/10/10 11:06:56;;;;;;;;;4.00;2.67;;;;;18.12;57.88;99054.88;4735384;29;103335;-61
2022/10/10 11:14:33;;;;;;;;;2.33;2.33;;;;;18.15;57.64;99037.97;4785337;28;102921;-61
2022/10/10 11:18:41;;;;;;;;;3.00;3.00;;;;;18.15;57.53;99035.22;4696533;28;102176;-61
2022/10/10 11:22:26;;;;;;;;;3.33;3.00;;;;;18.18;57.41;99029.28;4849244;28;102372;-62
2022/10/10 11:26:46;;;;;;;;;4.00;3.00;;;;;18.18;57.85;99019.19;4717380;28;102126;-61
2022/10/10 11:31:01;;;;;;;;;3.67;3.67;;;;;18.20;57.97;99016.19;4729085;28;102232;-61
2022/10/10 11:35:02;;;;;;;;;4.00;4.00;;;;;18.22;57.93;99014.06;4701350;28;102129;-61
2022/10/10 11:38:52;;;;;;;;;4.33;3.00;;;;;18.24;57.63;99011.91;4818150;28;102257;-62
2022/10/10 11:42:57;;;;;;;;;4.00;3.33;;;;;18.26;57.56;99015.25;4749854;29;106158;-61
2022/10/10 11:46:13;;;;;;;;;4.00;4.00;;;;;18.26;57.81;98996.06;4980647;27;102371;-45
2022/10/10 11:49:10;;;;;;;;;3.00;3.00;;;;;18.26;57.88;98996.91;4977280;28;102391;-44
2022/10/10 11:51:56;;;;;;;;;3.67;3.00;;;;;18.31;57.88;99001.66;5001235;27;108631;-45
2022/10/10 11:54:45;;;;;;;;;6.00;6.00;;;;;18.34;57.73;98994.84;4987879;28;102219;-45
2022/10/10 11:57:24;;;;;;;;;4.00;3.00;;;;;18.35;57.61;98991.91;4986367;28;103141;-45
2022/10/10 12:00:03;;;;;;;;;3.00;3.00;;;;;18.37;57.59;98984.25;4981298;28;102366;-45
2022/10/10 12:02:32;;;;;;;;;4.33;4.00;;;;;18.40;57.55;98980.22;4989203;28;109129;-45
2022/10/10 12:04:59;;;;;;;;;3.00;3.00;;;;;18.42;57.50;98978.06;4968878;28;103130;-45
2022/10/10 12:07:55;;;;;;;;;3.00;3.00;;;;;18.44;57.42;98974.00;4990254;27;102355;-45
2022/10/10 12:10:31;;;;;;;;;4.00;4.00;;;;;18.46;57.59;98966.38;4961844;28;105379;-45
2022/10/10 12:13:02;;;;;;;;;3.00;3.00;;;;;18.48;57.50;98969.72;4968657;28;108794;-46
2022/10/10 12:15:30;;;;;;;;;2.00;2.00;;;;;18.50;57.89;98967.56;4988976;28;102182;-45
2022/10/10 12:18:00;;;;;;;;;4.00;3.00;;;;;18.52;57.64;98968.16;4987562;28;102556;-46
2022/10/10 12:20:35;;;;;;;;;3.67;2.00;;;;;18.54;57.49;98963.31;4989086;28;102647;-45
2022/10/10 12:23:14;;;;;;;;;5.00;3.00;;;;;18.56;57.46;98958.41;4987430;28;108704;-45
2022/10/10 12:25:42;;;;;;;;;2.33;2.33;;;;;18.58;57.39;98950.78;4979958;28;102351;-45
2022/10/10 12:28:12;;;;;;;;;4.00;4.00;;;;;18.61;57.29;98953.03;4988410;27;102609;-45
2022/10/10 12:31:08;;;;;;;;;3.00;3.00;;;;;18.63;57.37;98950.88;4986939;28;102346;-45
2022/10/10 12:33:35;;;;;;;;;4.33;4.00;;;;;18.66;57.38;98947.66;4961663;27;108846;-45
2022/10/10 12:36:17;;;;;;;;;3.00;3.00;;;;;18.69;57.54;98943.56;4990699;28;102299;-45
2022/10/10 12:39:06;;;;;;;;;3.67;3.00;;;;;18.71;57.44;98941.44;4985638;28;102064;-45
2022/10/10 12:41:48;;;;;;;;;3.33;3.33;;;;;18.75;57.31;98933.56;4984121;28;110740;-45
2022/10/10 12:44:23;;;;;;;;;3.00;3.00;;;;;18.77;57.16;98934.16;4983910;28;104025;-45
2022/10/10 12:47:14;;;;;;;;;3.00;2.00;;;;;18.80;57.57;98922.69;4986778;27;103066;-45
2022/10/10 12:49:58;;;;;;;;;2.00;2.00;;;;;18.84;57.42;98918.38;4986873;28;102531;-45
2022/10/10 12:52:31;;;;;;;;;4.00;3.00;;;;;18.86;57.18;98918.97;4979762;28;102578;-45
2022/10/10 12:55:07;;;;;;;;;4.00;3.00;;;;;18.90;57.55;98922.88;4989660;27;104117;-46
2022/10/10 12:57:40;;;;;;;;;3.00;3.00;;;;;18.92;57.16;98916.06;4963256;28;102513;-44
2022/10/10 13:00:20;;;;;;;;;3.00;3.00;;;;;18.96;57.35;98913.66;4974510;28;102514;-45
2022/10/10 13:02:50;;;;;;;;;2.67;2.67;;;;;18.98;57.43;98922.47;4974413;28;102546;-45
2022/10/10 13:05:19;;;;;;;;;3.00;3.00;;;;;19.02;57.27;98905.28;4968643;28;104011;-45
2022/10/10 13:07:46;;;;;;;;;3.00;3.00;;;;;19.01;57.16;98903.63;4974842;28;102503;-45
2022/10/10 13:10:27;;;;;;;;;2.00;2.00;;;;;19.07;57.11;98899.06;4972896;28;102462;-45
2022/10/10 13:13:01;;;;;;;;;3.33;2.67;;;;;19.10;57.16;98895.81;4977882;28;102642;-45
2022/10/10 13:15:28;;;;;;;;;4.00;3.00;;;;;19.13;56.85;98896.16;4963851;28;104215;-45
2022/10/10 13:17:55;;;;;;;;;2.67;2.00;;;;;19.16;56.97;98889.34;4967972;28;102383;-45
2022/10/10 13:20:33;;;;;;;;;3.33;2.00;;;;;19.18;56.68;98893.47;4971221;28;102666;-44
2022/10/10 13:23:04;;;;;;;;;3.67;3.00;;;;;19.20;56.75;98882.28;4967235;28;102316;-44
2022/10/10 13:25:32;;;;;;;;;2.33;2.33;;;;;19.22;56.79;98893.84;4976382;28;109014;-45
2022/10/10 13:28:00;;;;;;;;;3.33;3.00;;;;;19.23;56.62;98890.00;4972342;28;102516;-44
2022/10/10 13:30:27;;;;;;;;;2.00;2.00;;;;;19.25;56.61;98890.59;4976259;28;102574;-45
2022/10/10 13:32:55;;;;;;;;;2.33;2.00;;;;;19.26;56.65;98889.50;4955937;28;105466;-44
2022/10/10 13:35:24;;;;;;;;;3.00;3.00;;;;;19.27;56.76;98891.19;4965614;28;104096;-44
2022/10/10 13:37:58;;;;;;;;;2.33;2.33;;;;;19.29;56.74;98889.00;4973054;28;102215;-45
2022/10/10 13:40:25;;;;;;;;;3.00;2.67;;;;;19.30;56.80;98879.69;4974278;28;102408;-43
2022/10/10 13:42:52;;;;;;;;;3.00;3.00;;;;;19.31;56.69;98872.31;4974863;28;102391;-44
2022/10/10 13:45:22;;;;;;;;;3.00;3.00;;;;;19.32;56.49;98885.75;4968059;28;104051;-44
2022/10/10 13:48:02;;;;;;;;;4.00;3.00;;;;;19.34;56.88;98880.84;4961829;28;102663;-43
2022/10/10 13:50:33;;;;;;;;;3.00;3.00;;;;;19.36;56.73;98875.94;4972856;28;105972;-44
2022/10/10 13:53:25;;;;;;;;;3.33;2.67;;;;;19.37;56.87;98874.03;4972569;28;102284;-43
2022/10/10 13:55:58;;;;;;;;;2.67;2.00;;;;;19.38;56.70;98865.56;4968755;28;110312;-43
2022/10/10 13:58:26;;;;;;;;;4.00;3.00;;;;;19.39;56.71;98872.72;4967627;28;102616;-44
2022/10/10 14:00:58;;;;;;;;;2.00;2.00;;;;;19.41;56.71;98867.78;4945986;28;102177;-43
2022/10/10 14:03:25;;;;;;;;;3.00;3.00;;;;;19.43;56.66;98873.03;4965717;28;102191;-43
2022/10/10 14:05:52;;;;;;;;;4.33;3.33;;;;;19.45;56.92;98877.22;4968317;28;104051;-43
2022/10/10 14:08:27;;;;;;;;;2.00;2.00;;;;;19.46;56.93;98872.56;4955842;28;102504;-44
2022/10/10 14:10:56;;;;;;;;;3.00;3.00;;;;;19.46;56.79;98870.66;4973865;28;102409;-44
2022/10/10 14:13:24;;;;;;;;;3.00;3.00;;;;;19.48;56.90;98865.75;4975215;28;102200;-44
2022/10/10 14:15:51;;;;;;;;;2.00;2.00;;;;;19.48;56.63;98854.78;4972109;28;104041;-44
2022/10/10 14:18:20;;;;;;;;;2.00;2.00;;;;;19.49;56.68;98856.44;4971952;28;102406;-44
2022/10/10 14:20:48;;;;;;;;;2.00;2.00;;;;;19.51;56.59;98859.75;4972797;28;102965;-43
2022/10/10 14:23:15;;;;;;;;;2.00;2.00;;;;;19.51;56.51;98854.25;4973608;28;102514;-43
2022/10/10 14:25:43;;;;;;;;;2.67;2.33;;;;;19.52;56.86;98852.34;4974733;28;104217;-43
2022/10/10 14:28:28;;;;;;;;;3.00;2.00;;;;;19.52;56.68;98850.44;4973256;28;102478;-44
2022/10/10 14:30:55;;;;;;;;;3.33;3.00;;;;;19.52;56.61;98841.38;4970198;28;102123;-44
2022/10/10 14:33:22;;;;;;;;;3.00;3.00;;;;;19.52;56.61;98844.97;4977134;27;102378;-44
2022/10/10 14:35:50;;;;;;;;;2.00;2.00;;;;;19.52;56.86;98850.44;4974643;28;105579;-43
2022/10/10 14:38:17;;;;;;;;;3.00;3.00;;;;;19.52;56.43;98836.72;4971304;28;102604;-43
2022/10/10 14:40:45;;;;;;;;;2.00;2.00;;;;;19.52;56.75;98844.13;4974057;28;102276;-44
2022/10/10 14:43:12;;;;;;;;;2.33;2.33;;;;;19.52;56.38;98839.47;4972120;28;102252;-44
2022/10/10 14:45:39;;;;;;;;;2.67;2.00;;;;;19.52;56.46;98844.13;4973884;28;104081;-44
2022/10/10 14:48:06;;;;;;;;;1.00;1.00;;;;;19.49;56.44;98845.47;4973067;28;102575;-43
2022/10/10 14:50:35;;;;;;;;;2.00;2.00;;;;;19.51;56.65;98836.97;4976419;28;102295;-44
2022/10/10 14:53:02;;;;;;;;;4.00;4.00;;;;;19.52;56.67;98844.13;4975705;28;102115;-44
2022/10/10 14:55:29;;;;;;;;;3.67;3.33;;;;;19.51;56.47;98840.56;4971385;28;108966;-44
2022/10/10 14:57:56;;;;;;;;;3.00;3.00;;;;;19.51;56.34;98837.81;4968675;28;102507;-44